createdAt,value
2022-10-02T00:03:06.402Z,17.687
2022-10-02T00:06:46.882Z,17.687
2022-10-02T00:10:27.226Z,17.625
2022-10-02T00:14:07.368Z,17.687
2022-10-02T00:17:47.950Z,17.687
2022-10-02T00:21:28.049Z,17.687
2022-10-02T00:25:08.032Z,17.687
2022-10-02T00:28:48.646Z,17.687
2022-10-02T00:32:30.137Z,17.687
2022-10-02T00:36:10.317Z,17.75
2022-10-02T00:39:50.199Z,17.75
2022-10-02T00:43:30.214Z,17.75
2022-10-02T00:47:11.998Z,17.75
2022-10-02T00:50:52.419Z,17.687
2022-10-02T00:54:32.484Z,17.687
2022-10-02T00:58:13.570Z,17.687
2022-10-02T01:03:07.637Z,17.687
2022-10-02T01:06:47.834Z,17.687
2022-10-02T01:10:28.159Z,17.75
2022-10-02T01:14:08.294Z,17.75
2022-10-02T01:17:48.794Z,17.75
2022-10-02T01:21:28.882Z,17.75
2022-10-02T01:25:08.850Z,17.687
2022-10-02T01:28:49.537Z,17.687
2022-10-02T01:32:29.988Z,17.687
2022-10-02T01:36:10.216Z,17.687
2022-10-02T01:39:50.114Z,17.687
2022-10-02T01:43:30.045Z,17.687
2022-10-02T01:47:11.514Z,17.687
2022-10-02T01:50:51.323Z,17.687
2022-10-02T01:54:31.218Z,17.687
2022-10-02T01:58:11.298Z,17.687
2022-10-02T02:03:07.454Z,17.625
2022-10-02T02:06:47.502Z,17.625
2022-10-02T02:10:31.094Z,17.625
2022-10-02T02:14:11.443Z,17.625
2022-10-02T02:17:51.813Z,17.562
2022-10-02T02:21:31.781Z,17.562
2022-10-02T02:25:11.902Z,17.5
2022-10-02T02:28:52.553Z,17.5
2022-10-02T02:32:33.248Z,17.5
2022-10-02T02:36:13.543Z,17.437
2022-10-02T02:39:53.641Z,17.437
2022-10-02T02:43:33.705Z,17.437
2022-10-02T02:47:14.977Z,17.437
2022-10-02T02:50:55.050Z,17.437
2022-10-02T02:54:35.306Z,17.437
2022-10-02T02:58:22.713Z,17.375
2022-10-02T03:03:07.863Z,17.375
2022-10-02T03:06:47.961Z,17.375
2022-10-02T03:10:28.413Z,17.375
2022-10-02T03:14:08.432Z,17.375
2022-10-02T03:17:48.570Z,17.375
2022-10-02T03:21:28.387Z,17.312
2022-10-02T03:25:08.429Z,17.312
2022-10-02T03:29:22.793Z,17.312
2022-10-02T03:33:03.600Z,17.312
2022-10-02T03:36:43.575Z,17.312
2022-10-02T03:40:55.083Z,17.312
2022-10-02T03:44:34.950Z,17.312
2022-10-02T03:48:44.082Z,17.312
2022-10-02T03:52:28.015Z,17.312
2022-10-02T03:56:07.948Z,17.312
2022-10-02T03:59:48.143Z,17.312
2022-10-02T04:03:12.437Z,17.312
2022-10-02T04:08:41.746Z,17.25
2022-10-02T04:12:21.926Z,17.25
2022-10-02T04:16:02.701Z,17.25
2022-10-02T04:19:49.769Z,17.25
2022-10-02T04:23:30.584Z,17.25
2022-10-02T04:27:11.938Z,17.25
2022-10-02T04:30:52.883Z,17.25
2022-10-02T04:34:33.798Z,17.25
2022-10-02T04:38:14.463Z,17.25
2022-10-02T04:41:54.767Z,17.25
2022-10-02T04:45:35.373Z,17.25
2022-10-02T04:49:17.126Z,17.25
2022-10-02T04:52:57.390Z,17.25
2022-10-02T04:56:38.364Z,17.25
2022-10-02T05:03:07.843Z,17.25
2022-10-02T05:06:52.677Z,17.25
2022-10-02T05:10:33.204Z,17.187
2022-10-02T05:14:13.594Z,17.187
2022-10-02T05:17:54.712Z,17.187
2022-10-02T05:21:35.049Z,17.187
2022-10-02T05:25:15.470Z,17.187
2022-10-02T05:29:03.002Z,17.187
2022-10-02T05:32:43.993Z,17.187
2022-10-02T05:36:31.365Z,17.187
2022-10-02T05:40:12.523Z,17.187
2022-10-02T05:43:53.078Z,17.187
2022-10-02T05:47:33.691Z,17.187
2022-10-02T05:51:14.170Z,17.187
2022-10-02T05:54:54.207Z,17.187
2022-10-02T05:58:34.195Z,17.187
2022-10-02T06:03:11.419Z,17.187
2022-10-02T06:06:51.805Z,17.187
2022-10-02T06:10:32.136Z,17.187
2022-10-02T06:14:12.863Z,17.187
2022-10-02T06:17:53.679Z,17.187
2022-10-02T06:21:38.257Z,17.187
2022-10-02T06:25:18.314Z,17.187
2022-10-02T06:28:59.530Z,17.187
2022-10-02T06:32:46.961Z,17.187
2022-10-02T06:36:34.246Z,17.187
2022-10-02T06:40:14.758Z,17.187
2022-10-02T06:43:55.128Z,17.187
2022-10-02T06:47:39.999Z,17.187
2022-10-02T06:51:20.523Z,17.187
2022-10-02T06:55:04.684Z,17.25
2022-10-02T06:58:45.257Z,17.25
2022-10-02T07:03:07.626Z,17.25
2022-10-02T07:06:47.817Z,17.312
2022-10-02T07:10:28.001Z,17.312
2022-10-02T07:14:08.097Z,17.312
2022-10-02T07:17:54.031Z,17.312
2022-10-02T07:21:34.352Z,17.312
2022-10-02T07:25:43.283Z,17.312
2022-10-02T07:29:24.565Z,17.312
2022-10-02T07:33:05.695Z,17.312
2022-10-02T07:36:45.666Z,17.312
2022-10-02T07:40:25.722Z,17.375
2022-10-02T07:44:05.696Z,17.375
2022-10-02T07:47:50.020Z,17.375
2022-10-02T07:51:30.460Z,17.375
2022-10-02T07:55:10.850Z,17.375
2022-10-02T07:58:56.051Z,17.437
2022-10-02T08:03:07.509Z,17.437
2022-10-02T08:06:47.910Z,17.437
2022-10-02T08:10:28.897Z,17.5
2022-10-02T08:14:15.592Z,17.5
2022-10-02T08:18:10.856Z,17.5
2022-10-02T08:22:15.580Z,17.5
2022-10-02T08:25:56.357Z,17.5
2022-10-02T08:29:37.790Z,17.562
2022-10-02T08:33:23.487Z,17.562
2022-10-02T08:37:05.072Z,17.562
2022-10-02T08:40:46.773Z,17.625
2022-10-02T08:44:27.154Z,17.687
2022-10-02T08:48:11.852Z,17.687
2022-10-02T08:51:52.247Z,17.687
2022-10-02T08:55:32.385Z,17.687
2022-10-02T08:59:15.530Z,17.687
2022-10-02T09:03:07.498Z,17.75
2022-10-02T09:06:47.758Z,17.75
2022-10-02T09:10:28.301Z,17.75
2022-10-02T09:14:08.839Z,17.75
2022-10-02T09:17:53.950Z,17.812
2022-10-02T09:21:41.140Z,17.812
2022-10-02T09:25:21.675Z,17.875
2022-10-02T09:29:03.382Z,17.875
2022-10-02T09:32:44.147Z,17.875
2022-10-02T09:36:25.019Z,17.937
2022-10-02T09:40:10.499Z,17.937
2022-10-02T09:43:51.179Z,17.937
2022-10-02T09:47:37.350Z,17.937
2022-10-02T09:51:17.810Z,18.0
2022-10-02T09:54:58.885Z,18.062
2022-10-02T09:58:39.416Z,18.062
2022-10-02T10:03:13.900Z,18.125
2022-10-02T10:07:21.295Z,18.125
2022-10-02T10:11:01.948Z,18.125
2022-10-02T10:14:42.571Z,18.187
2022-10-02T10:18:23.355Z,18.187
2022-10-02T10:22:08.143Z,18.25
2022-10-02T10:25:48.545Z,18.312
2022-10-02T10:29:35.834Z,18.312
2022-10-02T10:33:17.269Z,18.312
2022-10-02T10:36:57.922Z,18.312
2022-10-02T10:40:38.411Z,18.375
2022-10-02T10:44:51.916Z,18.375
2022-10-02T10:48:33.351Z,18.312
2022-10-02T10:52:19.697Z,18.25
2022-10-02T10:55:59.997Z,18.25
2022-10-02T10:59:45.820Z,18.25
2022-10-02T11:03:08.064Z,18.187
2022-10-02T11:06:48.546Z,18.187
2022-10-02T11:10:29.239Z,18.187
2022-10-02T11:14:10.491Z,18.187
2022-10-02T11:17:51.447Z,18.187
2022-10-02T11:21:32.693Z,18.125
2022-10-02T11:25:14.401Z,18.187
2022-10-02T11:28:55.227Z,18.25
2022-10-02T11:32:36.514Z,18.312
2022-10-02T11:36:16.817Z,18.312
2022-10-02T11:39:57.285Z,18.312
2022-10-02T11:43:41.845Z,18.375
2022-10-02T11:47:24.889Z,18.437
2022-10-02T11:51:05.057Z,18.562
2022-10-02T11:54:45.445Z,18.687
2022-10-02T11:58:26.144Z,18.937
2022-10-02T12:03:09.950Z,19.125
2022-10-02T12:06:50.725Z,19.375
2022-10-02T12:10:31.357Z,19.437
2022-10-02T12:14:19.754Z,19.437
2022-10-02T12:18:01.571Z,19.562
2022-10-02T12:21:42.454Z,19.75
2022-10-02T12:25:26.925Z,19.812
2022-10-02T12:29:08.616Z,19.812
2022-10-02T12:32:50.207Z,19.875
2022-10-02T12:36:34.919Z,19.937
2022-10-02T12:40:16.233Z,20.0
2022-10-02T12:43:57.650Z,20.062
2022-10-02T12:47:44.453Z,20.062
2022-10-02T12:51:31.736Z,20.062
2022-10-02T12:55:13.241Z,20.0
2022-10-02T12:58:54.189Z,19.937
2022-10-02T13:03:39.695Z,19.875
2022-10-02T13:07:26.589Z,19.812
2022-10-02T13:11:10.921Z,19.687
2022-10-02T13:14:51.593Z,19.562
2022-10-02T13:18:38.852Z,19.437
2022-10-02T13:22:19.742Z,19.437
2022-10-02T13:26:00.466Z,19.437
2022-10-02T13:29:41.965Z,19.375
2022-10-02T13:33:23.880Z,19.375
2022-10-02T13:37:18.101Z,19.375
2022-10-02T13:40:59.395Z,19.375
2022-10-02T13:44:44.155Z,19.312
2022-10-02T13:48:25.816Z,19.375
2022-10-02T13:52:10.396Z,19.5
2022-10-02T13:55:51.512Z,19.562
2022-10-02T13:59:32.460Z,19.625
2022-10-02T14:03:07.744Z,19.687
2022-10-02T14:06:48.804Z,19.75
2022-10-02T14:10:29.764Z,19.812
2022-10-02T14:14:11.479Z,19.875
2022-10-02T14:17:52.315Z,19.937
2022-10-02T14:21:33.128Z,19.937
2022-10-02T14:25:14.697Z,19.937
2022-10-02T14:28:56.061Z,19.937
2022-10-02T14:32:44.358Z,19.875
2022-10-02T14:36:25.044Z,19.875
2022-10-02T14:40:05.801Z,19.812
2022-10-02T14:43:46.705Z,19.75
2022-10-02T14:47:32.648Z,19.625
2022-10-02T14:51:13.792Z,19.562
2022-10-02T14:54:54.202Z,19.562
2022-10-02T14:58:39.921Z,19.562
2022-10-02T15:03:08.497Z,19.5
2022-10-02T15:06:56.095Z,19.5
2022-10-02T15:10:36.588Z,19.437
2022-10-02T15:14:25.689Z,19.437
2022-10-02T15:18:07.089Z,19.375
2022-10-02T15:21:48.323Z,19.375
2022-10-02T15:25:29.289Z,19.312
2022-10-02T15:29:26.241Z,19.312
2022-10-02T15:33:11.134Z,19.312
2022-10-02T15:36:52.311Z,19.25
2022-10-02T15:40:37.480Z,19.25
2022-10-02T15:44:32.415Z,19.187
2022-10-02T15:48:14.434Z,19.125
2022-10-02T15:51:54.990Z,19.062
2022-10-02T15:55:40.233Z,19.062
2022-10-02T15:59:21.525Z,19.062
2022-10-02T16:03:13.668Z,19.0
2022-10-02T16:08:36.797Z,19.0
2022-10-02T16:12:18.372Z,19.0
2022-10-02T16:15:59.273Z,18.937
2022-10-02T16:19:40.769Z,18.937
2022-10-02T16:23:21.646Z,18.875
2022-10-02T16:27:03.025Z,18.875
2022-10-02T16:30:44.048Z,18.812
2022-10-02T16:34:25.197Z,18.812
2022-10-02T16:38:11.184Z,18.75
2022-10-02T16:41:56.421Z,18.75
2022-10-02T16:45:39.301Z,18.75
2022-10-02T16:49:20.237Z,18.75
2022-10-02T16:53:03.654Z,18.75
2022-10-02T16:56:43.964Z,18.75
2022-10-02T17:03:41.891Z,18.687
2022-10-02T17:07:23.073Z,18.687
2022-10-02T17:11:08.031Z,18.687
2022-10-02T17:14:48.587Z,18.687
2022-10-02T17:18:30.828Z,18.75
2022-10-02T17:22:11.549Z,18.75
2022-10-02T17:25:56.252Z,18.75
2022-10-02T17:29:39.077Z,18.812
2022-10-02T17:33:27.701Z,18.875
2022-10-02T17:37:08.888Z,18.875
2022-10-02T17:40:51.479Z,18.937
2022-10-02T17:44:31.897Z,19.0
2022-10-02T17:48:19.254Z,19.125
2022-10-02T17:52:36.734Z,19.187
2022-10-02T17:56:17.128Z,19.25
2022-10-02T18:00:02.875Z,19.25
2022-10-02T18:03:07.786Z,19.25
2022-10-02T18:06:48.081Z,19.25
2022-10-02T18:10:28.294Z,19.25
2022-10-02T18:14:08.844Z,19.25
2022-10-02T18:17:49.741Z,19.312
2022-10-02T18:21:30.136Z,19.312
2022-10-02T18:25:11.250Z,19.312
2022-10-02T18:28:57.576Z,19.312
2022-10-02T18:32:46.576Z,19.312
2022-10-02T18:36:31.697Z,19.312
2022-10-02T18:40:12.141Z,19.25
2022-10-02T18:43:52.214Z,19.125
2022-10-02T18:47:33.215Z,19.125
2022-10-02T18:51:14.247Z,19.062
2022-10-02T18:54:54.421Z,19.062
2022-10-02T18:58:40.566Z,19.0
2022-10-02T19:03:08.234Z,18.937
2022-10-02T19:06:52.658Z,18.937
2022-10-02T19:10:32.941Z,18.937
2022-10-02T19:14:13.778Z,18.937
2022-10-02T19:17:54.450Z,18.937
2022-10-02T19:21:34.887Z,18.937
2022-10-02T19:26:24.273Z,18.937
2022-10-02T19:30:04.537Z,18.937
2022-10-02T19:33:44.987Z,18.875
2022-10-02T19:37:24.978Z,18.875
2022-10-02T19:41:05.065Z,18.875
2022-10-02T19:44:44.897Z,18.875
2022-10-02T19:48:25.695Z,18.875
2022-10-02T19:52:06.192Z,18.875
2022-10-02T19:55:48.814Z,18.875
2022-10-02T19:59:28.927Z,18.875
2022-10-02T20:03:11.413Z,18.875
2022-10-02T20:06:52.156Z,18.812
2022-10-02T20:10:38.289Z,18.875
2022-10-02T20:14:25.540Z,18.937
2022-10-02T20:18:05.983Z,18.937
2022-10-02T20:21:46.426Z,18.875
2022-10-02T20:25:26.315Z,18.875
2022-10-02T20:29:07.251Z,18.812
2022-10-02T20:32:47.842Z,18.812
2022-10-02T20:36:28.052Z,18.812
2022-10-02T20:40:08.222Z,18.812
2022-10-02T20:43:48.486Z,18.75
2022-10-02T20:47:34.117Z,18.75
2022-10-02T20:51:50.599Z,18.75
2022-10-02T20:55:32.522Z,18.75
2022-10-02T20:59:42.303Z,18.75
2022-10-02T21:03:08.041Z,18.75
2022-10-02T21:06:48.066Z,18.75
2022-10-02T21:10:35.280Z,18.75
2022-10-02T21:14:15.138Z,18.687
2022-10-02T21:18:00.351Z,18.75
2022-10-02T21:21:56.879Z,18.687
2022-10-02T21:25:36.618Z,18.625
2022-10-02T21:29:17.836Z,18.625
2022-10-02T21:32:59.639Z,18.625
2022-10-02T21:36:40.263Z,18.562
2022-10-02T21:40:20.546Z,18.562
2022-10-02T21:44:01.350Z,18.562
2022-10-02T21:47:47.713Z,18.5
2022-10-02T21:51:27.568Z,18.5
2022-10-02T21:55:08.477Z,18.437
2022-10-02T21:58:48.708Z,18.437
2022-10-02T22:03:32.545Z,18.375
2022-10-02T22:07:20.106Z,18.375
2022-10-02T22:11:00.146Z,18.375
2022-10-02T22:14:40.188Z,18.375
2022-10-02T22:18:20.851Z,18.375
2022-10-02T22:22:05.261Z,18.312
2022-10-02T22:25:45.322Z,18.312
2022-10-02T22:29:25.505Z,18.312
2022-10-02T22:33:06.536Z,18.312
2022-10-02T22:36:48.881Z,18.312
2022-10-02T22:40:28.690Z,18.312
2022-10-02T22:44:09.407Z,18.25
2022-10-02T22:47:50.061Z,18.25
2022-10-02T22:51:30.139Z,18.25
2022-10-02T22:55:10.730Z,18.25
2022-10-02T22:58:54.489Z,18.187
2022-10-02T23:03:07.940Z,18.187
2022-10-02T23:06:51.954Z,18.187
2022-10-02T23:10:32.046Z,18.187
2022-10-02T23:14:22.314Z,18.187
2022-10-02T23:18:02.804Z,18.187
2022-10-02T23:21:45.641Z,18.187
2022-10-02T23:25:26.364Z,18.125
2022-10-02T23:29:06.735Z,18.125
2022-10-02T23:32:47.610Z,18.125
2022-10-02T23:36:27.735Z,18.125
2022-10-02T23:40:07.556Z,18.125
2022-10-02T23:43:47.208Z,18.125
2022-10-02T23:47:27.475Z,18.062
2022-10-02T23:51:07.693Z,18.062
2022-10-02T23:54:47.602Z,18.062
2022-10-02T23:58:33.264Z,18.062
